Westfield, NJ (07091)

1:09 AM EDT on July 24, 2016 (GMT -0400)
Murray Hill | | Change Station
Active Advisory: Excessive Heat Watch

Elev 518 ft 40.69 °N, 74.39 °W | Updated 5 minutes ago

Clear
Clear
76.6 °F
Feels Like 78 °F
N
0.6
Wind Variable Wind from NNW
Gusts 1.2 mph

Today
High -- | Low -- °F
--% Chance of Precip.
Yesterday
High -- | Low -- °F
Precip. -- in
Pressure 29.93 in
Visibility 10.0 miles
Clouds Clear
Heat Index 78 °F
Dew Point 58 °F
Humidity 53%
Rainfall 0.00 in
Snow Depth Not available.
5:47 AM 8:20 PM
Waning Gibbous, 79% visible
METAR KMMU 240455Z AUTO 00000KT 10SM CLR 19/15 A2993 RMK AO2
Pressure 29.93 in
Visibility 10.0 miles
Clouds Clear
Heat Index 78 °F
Dew Point 58 °F
Humidity 53%
Rainfall 0.00 in
Snow Depth Not available.
5:47 AM 8:20 PM
Waning Gibbous, 79% visible
METAR KMMU 240455Z AUTO 00000KT 10SM CLR 19/15 A2993 RMK AO2

10-Day Weather Forecast

Almanac

Astronomy

Jul. 24, 2016 Rise Set
Actual Time
Civil Twilight
Nautical Twilight
Astronomical Twilight
Moon
Length of Visible Light
Length of Day
Tomorrow will be .
, % of the Moon is Illuminated

Today's Extremes

State Highs State Lows

Community

WunderPhotos

Upload Photos

1,927,031 photos uploaded!

WunderBlog® & News

Nearby

Air Quality

  Air Quality AQ Index Pollutant
Not available.

Snow Depth

Station Depth Elevation

Earthquake Activity

City Distance Mag. Time & Date
Minimum magnitude displayed is 2.5.

Coastal Water Temperatures

Place Temperature

Stations

Nearby Weather Stations

Station Location Temp. Windchill Dew Point Humidity Wind Precip. Elev Updated Type
                   

Watches & Warnings

Excessive Heat Watch
Issued: 7:02 PM EDT Jul. 23, 2016 – National Weather Service

... Excessive heat watch remains in effect from Monday morning
through Monday afternoon...

* heat index values... up to around 105 degrees.

* Timing... highest heat indices Monday afternoon.

* Impacts... hot conditions will increase the risk for heat
related health issues... especially for the elderly... those
with chronic health problems such as lung and heart disease...
those working outdoors... and other heat sensitive groups of
people.

Precautionary/preparedness actions...

An excessive heat watch means that the combination of heat and
humidity could create a dangerous situation in which heat
illnesses are possible. Take extra precautions if you work or
spend time outside. When possible... reschedule strenuous
activities to early morning or evening. Know the signs and
symptoms of heat exhaustion and heat stroke. Wear light weight
and loose fitting clothing when possible and drink plenty of
water.

To reduce risk during outdoor work the occupational safety and
health administration recommends scheduling frequent rest breaks
in shaded or air conditioned environments. Anyone overcome by
heat should be moved to a cool and shaded location. Heat stroke
is an emergency... call 9 1 1.